Barlestone, United Kingdom
Current Conditions -  °F | °C
As of 1:50 PM on Saturday 01 Nov 2014 (Local Time) from EGNX Reporting Station
Scattered Clouds Scattered Clouds  
Wind Chill: 59°   Ceiling: Unl
Heat Index: 59°   Visibility: 6mi
Dew Point: 46°   Wind: 20mph
Humidity: 63%   Direction: 200°SSW
Pressure: 29.88"   Gusts: NA
Location:  52.65°N, 1.37°W
Report Text: EGNX 011350Z 20017KT 9999 SCT028 SCT035 15/08 Q1012
Loading
Personal Weather Stations






























Interactive Weather Map
Tropical Storm Tracking
New forecast layout! Learn more

10-Day Weather Forecast

Advertisements
Track Severe Weather on mobile